createdAt,value
2022-10-11T00:00:45.259Z,100.00
2022-10-11T00:06:03.795Z,100.00
2022-10-11T00:11:21.026Z,100.00
2022-10-11T00:16:40.930Z,100.00
2022-10-11T00:21:57.352Z,100.00
2022-10-11T00:27:15.174Z,100.00
2022-10-11T00:32:30.850Z,100.00
2022-10-11T00:37:47.345Z,100.00
2022-10-11T00:43:04.660Z,100.00
2022-10-11T00:48:32.957Z,100.00
2022-10-11T00:53:48.982Z,100.00
2022-10-11T00:59:08.571Z,100.00
2022-10-11T01:04:24.772Z,100.00
2022-10-11T01:09:41.360Z,100.00
2022-10-11T01:15:16.460Z,100.00
2022-10-11T01:20:41.621Z,100.00
2022-10-11T01:26:07.397Z,100.00
2022-10-11T01:31:26.615Z,100.00
2022-10-11T01:37:06.332Z,100.00
2022-10-11T01:42:21.876Z,100.00
2022-10-11T01:47:39.189Z,100.00
2022-10-11T01:52:55.136Z,100.00
2022-10-11T01:58:36.419Z,100.00
2022-10-11T02:04:33.950Z,100.00
2022-10-11T02:10:26.366Z,100.00
2022-10-11T02:15:42.559Z,100.00
2022-10-11T02:21:00.864Z,100.00
2022-10-11T02:26:18.158Z,100.00
2022-10-11T02:31:33.891Z,100.00
2022-10-11T02:36:51.858Z,100.00
2022-10-11T02:42:11.942Z,100.00
2022-10-11T02:47:30.486Z,100.00
2022-10-11T02:52:47.392Z,100.00
2022-10-11T02:58:03.431Z,100.00
2022-10-11T03:03:23.023Z,100.00
2022-10-11T03:08:39.801Z,100.00
2022-10-11T03:13:59.493Z,100.00
2022-10-11T03:19:19.141Z,100.00
2022-10-11T03:24:36.071Z,100.00
2022-10-11T03:29:55.896Z,100.00
2022-10-11T03:35:12.525Z,100.00
2022-10-11T03:40:29.119Z,100.00
2022-10-11T03:45:45.769Z,100.00
2022-10-11T03:51:03.551Z,100.00
2022-10-11T03:56:18.958Z,100.00
2022-10-11T04:01:38.098Z,100.00
2022-10-11T04:06:56.378Z,100.00
2022-10-11T04:12:12.536Z,100.00
2022-10-11T04:17:29.739Z,100.00
2022-10-11T04:22:45.340Z,100.00
2022-10-11T04:28:01.950Z,100.00
2022-10-11T04:33:18.739Z,100.00
2022-10-11T04:38:35.148Z,100.00
2022-10-11T04:43:54.784Z,100.00
2022-10-11T04:49:10.018Z,100.00
2022-10-11T04:54:26.754Z,100.00
2022-10-11T04:59:46.682Z,100.00
2022-10-11T05:05:06.927Z,100.00
2022-10-11T05:10:22.872Z,100.00
2022-10-11T05:15:39.677Z,100.00
2022-10-11T05:21:14.242Z,100.00
2022-10-11T05:26:30.752Z,100.00
2022-10-11T05:31:46.989Z,100.00
2022-10-11T05:37:03.722Z,100.00
2022-10-11T05:42:20.251Z,100.00
2022-10-11T05:47:36.812Z,100.00
2022-10-11T05:52:56.068Z,100.00
2022-10-11T05:58:13.510Z,100.00
2022-10-11T06:03:29.884Z,100.00
2022-10-11T06:08:46.531Z,100.00
2022-10-11T06:14:03.119Z,100.00
2022-10-11T06:19:42.542Z,100.00
2022-10-11T06:25:12.569Z,100.00
2022-10-11T06:30:45.708Z,100.00
2022-10-11T06:36:18.370Z,100.00
2022-10-11T06:41:48.801Z,100.00
2022-10-11T06:47:21.703Z,100.00
2022-10-11T06:53:09.264Z,100.00
2022-10-11T06:58:58.107Z,100.00
2022-10-11T07:04:28.087Z,100.00
2022-10-11T07:09:57.494Z,100.00
2022-10-11T07:15:37.994Z,100.00
2022-10-11T07:21:12.148Z,100.00
2022-10-11T07:26:45.313Z,100.00
2022-10-11T07:32:16.277Z,100.00
2022-10-11T07:37:57.596Z,100.00
2022-10-11T07:43:27.654Z,100.00
2022-10-11T07:48:57.082Z,100.00
2022-10-11T07:54:35.643Z,100.00
2022-10-11T08:00:11.928Z,100.00
2022-10-11T08:05:44.878Z,100.00
2022-10-11T08:11:36.574Z,100.00
2022-10-11T08:17:05.834Z,100.00
2022-10-11T08:22:39.389Z,100.00
2022-10-11T08:28:17.425Z,100.00
2022-10-11T08:33:58.772Z,100.00
2022-10-11T08:39:38.872Z,100.00
2022-10-11T08:45:50.135Z,100.00
2022-10-11T08:52:00.011Z,100.00
2022-10-11T08:57:04.055Z,100.00
2022-10-11T09:03:06.827Z,100.00
2022-10-11T09:08:22.166Z,100.00
2022-10-11T09:13:52.456Z,100.00
2022-10-11T09:19:17.458Z,100.00
2022-10-11T09:24:25.734Z,100.00
2022-10-11T09:30:06.267Z,99.32
2022-10-11T09:35:18.774Z,97.39
2022-10-11T09:40:29.567Z,95.84
2022-10-11T09:45:31.224Z,94.20
2022-10-11T09:50:32.915Z,92.66
2022-10-11T09:55:43.506Z,91.65
2022-10-11T10:00:45.160Z,90.56
2022-10-11T10:05:46.895Z,90.77
2022-10-11T10:10:59.571Z,90.12
2022-10-11T10:16:02.648Z,88.34
2022-10-11T10:21:04.774Z,88.31
2022-10-11T10:26:15.139Z,88.46
2022-10-11T10:31:22.311Z,80.30
2022-10-11T10:36:27.726Z,84.82
2022-10-11T10:41:29.428Z,84.05
2022-10-11T10:46:30.936Z,83.47
2022-10-11T10:52:06.707Z,83.82
2022-10-11T10:57:15.401Z,81.14
2022-10-11T11:02:39.665Z,79.87
2022-10-11T11:07:49.384Z,79.31
2022-10-11T11:12:56.931Z,79.53
2022-10-11T11:18:15.009Z,79.80
2022-10-11T11:23:35.629Z,79.02
2022-10-11T11:28:49.873Z,71.79
2022-10-11T11:34:13.754Z,75.62
2022-10-11T11:39:19.173Z,73.21
2022-10-11T11:44:27.273Z,74.33
2022-10-11T11:54:54.314Z,70.68
2022-10-11T12:00:07.688Z,68.06
2022-10-11T12:05:20.956Z,66.77
2022-10-11T12:10:39.825Z,68.68
2022-10-11T12:16:12.369Z,69.16
2022-10-11T12:21:20.644Z,65.78
2022-10-11T12:26:28.269Z,65.34
2022-10-11T12:31:34.625Z,64.22
2022-10-11T12:36:37.362Z,63.99
2022-10-11T12:41:53.524Z,61.89
2022-10-11T12:46:55.037Z,59.98
2022-10-11T12:52:03.859Z,58.77
2022-10-11T12:57:11.839Z,60.27
2022-10-11T13:02:29.848Z,61.82
2022-10-11T13:07:31.461Z,63.16
2022-10-11T13:12:37.566Z,65.09
2022-10-11T13:17:39.470Z,60.61
2022-10-11T13:22:41.281Z,58.02
2022-10-11T13:27:42.922Z,58.93
2022-10-11T13:32:44.547Z,56.99
2022-10-11T13:37:46.905Z,56.83
2022-10-11T13:42:49.285Z,54.01
2022-10-11T13:47:51.505Z,54.81
2022-10-11T13:53:04.718Z,54.78
2022-10-11T13:58:14.967Z,56.87
2022-10-11T14:03:19.980Z,57.74
2022-10-11T14:08:30.552Z,55.82
2022-10-11T14:13:34.082Z,55.85
2022-10-11T14:18:49.752Z,55.29
2022-10-11T14:24:11.972Z,55.21
2022-10-11T14:29:31.219Z,54.25
2022-10-11T14:34:33.026Z,55.63
2022-10-11T14:39:34.753Z,54.48
2022-10-11T14:44:36.469Z,52.86
2022-10-11T14:49:38.131Z,54.59
2022-10-11T14:54:39.763Z,55.20
2022-10-11T14:59:43.182Z,55.88
2022-10-11T15:04:44.831Z,55.98
2022-10-11T15:09:46.530Z,56.49
2022-10-11T15:14:48.191Z,57.15
2022-10-11T15:19:50.730Z,57.12
2022-10-11T15:24:52.367Z,58.11
2022-10-11T15:29:54.011Z,57.13
2022-10-11T15:34:55.632Z,57.46
2022-10-11T15:39:57.281Z,58.06
2022-10-11T15:44:58.974Z,58.07
2022-10-11T15:50:00.698Z,59.69
2022-10-11T15:55:02.379Z,59.28
2022-10-11T16:00:04.670Z,59.80
2022-10-11T16:05:13.465Z,61.23
2022-10-11T16:10:15.268Z,61.74
2022-10-11T16:15:17.070Z,62.71
2022-10-11T16:20:22.248Z,62.59
2022-10-11T16:25:24.025Z,64.11
2022-10-11T16:30:26.000Z,65.81
2022-10-11T16:35:32.253Z,67.53
2022-10-11T16:40:35.919Z,71.95
2022-10-11T16:45:37.869Z,74.64
2022-10-11T16:50:39.927Z,75.13
2022-10-11T16:55:41.680Z,76.60
2022-10-11T17:00:43.447Z,78.02
2022-10-11T17:05:45.162Z,79.25
2022-10-11T17:10:52.595Z,80.75
2022-10-11T17:15:54.239Z,82.25
2022-10-11T17:21:07.009Z,83.44
2022-10-11T17:26:11.547Z,84.52
2022-10-11T17:31:13.466Z,85.20
2022-10-11T17:36:24.168Z,86.22
2022-10-11T17:41:30.878Z,87.47
2022-10-11T17:46:33.791Z,88.52
2022-10-11T17:51:35.920Z,88.68
2022-10-11T17:56:38.281Z,89.09
2022-10-11T18:01:40.136Z,89.45
2022-10-11T18:06:43.467Z,89.65
2022-10-11T18:11:45.143Z,91.32
2022-10-11T18:16:46.898Z,91.82
2022-10-11T18:21:48.520Z,92.52
2022-10-11T18:26:50.195Z,93.04
2022-10-11T18:31:52.001Z,93.59
2022-10-11T18:36:53.698Z,94.08
2022-10-11T18:41:55.459Z,94.32
2022-10-11T18:46:58.463Z,95.44
2022-10-11T18:52:00.142Z,95.82
2022-10-11T18:57:01.803Z,95.46
2022-10-11T19:02:04.827Z,95.53
2022-10-11T19:07:06.539Z,96.09
2022-10-11T19:12:08.273Z,96.11
2022-10-11T19:17:12.222Z,96.47
2022-10-11T19:22:13.890Z,96.24
2022-10-11T19:27:15.546Z,95.28
2022-10-11T19:32:17.213Z,95.13
2022-10-11T19:37:18.908Z,95.44
2022-10-11T19:42:20.571Z,96.12
2022-10-11T19:47:22.303Z,96.57
2022-10-11T19:52:23.979Z,96.48
2022-10-11T19:57:25.611Z,96.17
2022-10-11T20:02:27.260Z,97.75
2022-10-11T20:07:29.049Z,99.23
2022-10-11T20:12:31.160Z,99.76
2022-10-11T20:17:48.294Z,100.00
2022-10-11T20:22:49.953Z,100.00
2022-10-11T20:27:51.631Z,100.00
2022-10-11T20:32:53.315Z,100.00
2022-10-11T20:37:54.931Z,100.00
2022-10-11T20:42:56.566Z,100.00
2022-10-11T20:47:59.135Z,100.00
2022-10-11T20:53:00.769Z,100.00
2022-10-11T20:58:02.414Z,100.00
2022-10-11T21:03:04.078Z,100.00
2022-10-11T21:08:05.715Z,100.00
2022-10-11T21:13:07.413Z,100.00
2022-10-11T21:18:09.076Z,100.00
2022-10-11T21:23:11.072Z,100.00
2022-10-11T21:28:12.935Z,100.00
2022-10-11T21:33:14.628Z,100.00
2022-10-11T21:38:16.275Z,100.00
2022-10-11T21:43:17.936Z,100.00
2022-10-11T21:48:19.581Z,100.00
2022-10-11T21:53:21.307Z,100.00
2022-10-11T21:58:22.946Z,100.00
2022-10-11T22:03:25.350Z,100.00
2022-10-11T22:08:26.997Z,100.00
2022-10-11T22:13:29.411Z,100.00
2022-10-11T22:18:33.653Z,100.00
2022-10-11T22:23:35.603Z,100.00
2022-10-11T22:28:37.275Z,100.00
2022-10-11T22:33:39.156Z,100.00
2022-10-11T22:38:41.954Z,100.00
2022-10-11T22:43:43.584Z,100.00
2022-10-11T22:48:45.223Z,100.00
2022-10-11T22:53:46.923Z,100.00
2022-10-11T22:58:48.589Z,100.00
2022-10-11T23:03:50.799Z,100.00
2022-10-11T23:08:52.516Z,100.00
2022-10-11T23:13:54.162Z,100.00
2022-10-11T23:18:55.881Z,100.00
2022-10-11T23:23:57.502Z,100.00
2022-10-11T23:28:59.130Z,100.00
2022-10-11T23:34:00.779Z,100.00
2022-10-11T23:39:02.411Z,100.00
2022-10-11T23:44:04.080Z,100.00
2022-10-11T23:49:05.705Z,100.00
2022-10-11T23:54:07.407Z,100.00
2022-10-11T23:59:09.089Z,100.00
